Time;durP1;ratioP1;P1;durP2;ratioP2;P2;SDS_P1;SDS_P2;PMS_P1;PMS_P2;Temp;Humidity;BMP_temperature;BMP_pressure;BME280_temperature;BME280_humidity;BME280_pressure;Samples;Min_cycle;Max_cycle;Signal;HPM_P1;HPM_P2
2021/10/02 00:37:06;;;;;;;31.00;21.27;;;231.20;2252.80;;;;;;4866804;29;20478;-54
2021/10/02 00:45:02;;;;;;;31.80;20.77;;;231.10;2252.80;;;;;;4868353;29;20036;-55
2021/10/02 00:47:33;;;;;;;28.95;19.85;;;231.10;2252.80;;;;;;4867773;29;20069;-53
2021/10/02 00:49:59;;;;;;;33.58;22.70;;;231.20;2252.80;;;;;;4866063;29;20389;-52
2021/10/02 00:52:26;;;;;;;31.25;20.20;;;231.20;2252.80;;;;;;4867190;29;20032;-53
2021/10/02 00:54:52;;;;;;;35.05;22.38;;;231.20;2252.80;;;;;;4867609;29;20033;-54
2021/10/02 00:57:17;;;;;;;32.67;22.02;;;231.20;2252.80;;;;;;4865760;29;20078;-53
2021/10/02 00:59:46;;;;;;;30.40;22.30;;;231.20;2252.80;;;;;;4867790;29;20041;-53
2021/10/02 01:02:31;;;;;;;32.40;22.30;;;231.30;2252.80;;;;;;4865639;29;20041;-53
2021/10/02 01:05:26;;;;;;;34.13;21.98;;;231.20;2252.80;;;;;;4868746;29;20045;-58
2021/10/02 01:08:03;;;;;;;31.85;22.83;;;231.20;2252.80;;;;;;4799189;29;20055;-53
2021/10/02 01:10:38;;;;;;;35.10;23.02;;;231.10;2252.80;;;;;;4799294;29;20104;-52
2021/10/02 01:13:33;;;;;;;33.10;20.77;;;231.20;2252.80;;;;;;4798266;29;20035;-56
2021/10/02 01:16:21;;;;;;;34.47;23.50;;;231.10;2252.80;;;;;;4800732;29;20541;-51
2021/10/02 01:18:59;;;;;;;31.65;23.73;;;231.00;2252.80;;;;;;4800489;29;20132;-52
2021/10/02 01:21:51;;;;;;;37.92;26.27;;;231.10;2252.80;;;;;;4800759;29;20042;-52
2021/10/02 01:24:22;;;;;;;37.25;23.92;;;231.10;2252.80;;;;;;4794070;29;20114;-53
2021/10/02 01:27:00;;;;;;;39.38;26.25;;;231.00;2252.80;;;;;;4800913;29;20057;-53
2021/10/02 01:29:29;;;;;;;35.60;23.42;;;231.00;2252.80;;;;;;4800943;29;20122;-51
2021/10/02 01:32:08;;;;;;;36.55;23.73;;;231.00;2252.80;;;;;;4800917;29;20129;-54
2021/10/02 01:34:48;;;;;;;36.55;23.00;;;231.00;2252.80;;;;;;4801375;29;20037;-52
2021/10/02 01:48:16;;;;;;;33.72;24.65;;;230.90;2252.80;;;;;;4858001;29;20449;-53
2021/10/02 01:50:47;;;;;;;35.45;24.98;;;230.80;2252.80;;;;;;4858034;29;20073;-53
2021/10/02 01:53:14;;;;;;;28.63;22.42;;;230.90;2252.80;;;;;;4857690;29;20029;-53
2021/10/02 01:55:40;;;;;;;59.25;30.27;;;230.90;2252.80;;;;;;4857619;29;20381;-53
2021/10/02 01:58:16;;;;;;;51.97;27.90;;;230.90;2252.80;;;;;;4857658;29;20109;-53
2021/10/02 02:00:48;;;;;;;47.53;26.27;;;230.90;2252.80;;;;;;4857691;29;20037;-53
2021/10/02 02:03:17;;;;;;;37.40;23.67;;;230.90;2252.80;;;;;;4857921;29;20038;-53
2021/10/02 02:05:44;;;;;;;34.40;24.02;;;230.90;2252.80;;;;;;4857730;29;20060;-53
2021/10/02 02:08:13;;;;;;;34.47;23.92;;;230.90;2252.80;;;;;;4857535;29;20042;-55
2021/10/02 02:10:43;;;;;;;32.17;23.70;;;230.90;2252.80;;;;;;4857372;29;20036;-53
2021/10/02 02:13:12;;;;;;;28.75;20.42;;;230.90;2252.80;;;;;;4857370;29;20037;-53
2021/10/02 02:15:39;;;;;;;35.05;22.67;;;230.90;2252.80;;;;;;4857190;29;20084;-53
2021/10/02 02:18:08;;;;;;;31.58;23.35;;;230.90;2252.80;;;;;;4857713;29;20033;-53
2021/10/02 02:20:35;;;;;;;43.25;22.85;;;230.80;2252.80;;;;;;4857674;29;20101;-52
2021/10/02 02:23:01;;;;;;;50.60;29.45;;;230.90;2252.80;;;;;;4857624;29;20036;-53
2021/10/02 02:25:28;;;;;;;44.95;26.05;;;230.90;2252.80;;;;;;4857408;29;20029;-53
2021/10/02 02:27:55;;;;;;;39.78;21.70;;;230.90;2252.80;;;;;;4857635;29;20048;-53
2021/10/02 02:30:21;;;;;;;45.90;23.55;;;230.90;2252.80;;;;;;4857237;29;20078;-53
2021/10/02 02:32:50;;;;;;;30.42;21.52;;;230.90;2252.80;;;;;;4857311;29;20053;-55
2021/10/02 02:35:18;;;;;;;34.45;23.80;;;230.90;2252.80;;;;;;4857420;29;20033;-53
2021/10/02 02:37:44;;;;;;;32.60;22.05;;;230.90;2252.80;;;;;;4857595;29;20034;-53
2021/10/02 02:40:10;;;;;;;37.25;22.63;;;230.90;2252.80;;;;;;4857518;29;20540;-53
2021/10/02 02:42:37;;;;;;;34.33;22.13;;;230.80;2252.80;;;;;;4857348;29;20472;-53
2021/10/02 02:45:05;;;;;;;47.83;24.83;;;230.90;2252.80;;;;;;4857656;29;20033;-53
2021/10/02 02:47:32;;;;;;;36.13;22.13;;;230.80;2252.80;;;;;;4857643;29;20116;-53
2021/10/02 02:50:13;;;;;;;37.25;21.10;;;230.80;2252.80;;;;;;4857245;29;20121;-52
2021/10/02 02:52:51;;;;;;;32.22;21.42;;;230.70;2252.80;;;;;;4859749;29;20025;-53
2021/10/02 02:55:21;;;;;;;37.60;22.55;;;230.70;2252.80;;;;;;4860666;29;20037;-53
2021/10/02 02:57:51;;;;;;;36.85;21.40;;;230.70;2252.80;;;;;;4860661;29;20174;-53
2021/10/02 03:00:19;;;;;;;29.88;19.67;;;230.70;2252.80;;;;;;4860316;29;20559;-53
2021/10/02 03:02:50;;;;;;;33.83;20.60;;;230.70;2252.80;;;;;;4860447;29;20365;-53
2021/10/02 03:05:18;;;;;;;36.25;20.77;;;230.70;2252.80;;;;;;4860297;29;20043;-53
2021/10/02 03:08:04;;;;;;;33.40;21.27;;;230.70;2252.80;;;;;;4860514;29;20152;-53
2021/10/02 03:10:31;;;;;;;42.40;22.83;;;230.70;2252.80;;;;;;4860474;29;20108;-53
2021/10/02 03:13:04;;;;;;;51.95;28.88;;;230.70;2252.80;;;;;;4860211;29;20136;-54
2021/10/02 03:15:30;;;;;;;45.33;24.87;;;230.60;2252.80;;;;;;4860321;29;20030;-52
2021/10/02 03:17:57;;;;;;;31.67;22.23;;;230.60;2252.80;;;;;;4859923;29;20317;-53
2021/10/02 03:20:25;;;;;;;29.50;20.48;;;230.60;2252.80;;;;;;4860633;29;20034;-53
2021/10/02 03:22:53;;;;;;;22.65;16.35;;;230.70;2252.80;;;;;;4860410;29;20472;-53
2021/10/02 03:25:26;;;;;;;30.17;16.70;;;230.60;2252.80;;;;;;4860071;29;20139;-53
2021/10/02 03:27:54;;;;;;;24.05;14.95;;;230.60;2252.80;;;;;;4859993;29;20038;-54
2021/10/02 03:30:20;;;;;;;22.85;15.77;;;230.70;2252.80;;;;;;4859786;29;20057;-53
2021/10/02 03:32:47;;;;;;;23.98;16.67;;;230.70;2252.80;;;;;;4860083;29;20039;-53
2021/10/02 03:35:12;;;;;;;28.58;16.73;;;230.60;2252.80;;;;;;4860231;29;20030;-53
2021/10/02 03:37:38;;;;;;;21.52;16.30;;;230.60;2252.80;;;;;;4860008;29;20096;-53
2021/10/02 03:40:06;;;;;;;24.50;15.95;;;230.60;2252.80;;;;;;4860232;29;20786;-52
2021/10/02 03:42:41;;;;;;;22.52;16.63;;;230.60;2252.80;;;;;;4859866;29;20026;-53
2021/10/02 03:45:07;;;;;;;23.92;16.88;;;230.60;2252.80;;;;;;4859721;29;20025;-53
2021/10/02 03:47:33;;;;;;;27.10;18.00;;;230.60;2252.80;;;;;;4859976;29;20440;-53
2021/10/02 03:49:59;;;;;;;26.70;16.30;;;230.50;2252.80;;;;;;4859621;29;20038;-54
2021/10/02 03:52:25;;;;;;;24.73;17.30;;;230.50;2252.80;;;;;;4859543;29;20033;-54
2021/10/02 03:54:50;;;;;;;28.65;16.52;;;230.50;2252.80;;;;;;4859782;29;20105;-54
2021/10/02 03:57:16;;;;;;;32.63;17.10;;;230.50;2252.80;;;;;;4859239;29;20077;-53
2021/10/02 03:59:42;;;;;;;29.23;16.92;;;230.50;2252.80;;;;;;4859466;29;20481;-53
2021/10/02 04:02:08;;;;;;;33.45;16.70;;;230.50;2252.80;;;;;;4859141;29;20037;-53
2021/10/02 04:04:34;;;;;;;23.73;17.65;;;230.50;2252.80;;;;;;4858827;29;20052;-53
2021/10/02 04:07:00;;;;;;;24.25;15.05;;;230.50;2252.80;;;;;;4859355;29;20377;-53
2021/10/02 04:09:26;;;;;;;29.10;19.40;;;230.50;2252.80;;;;;;4859312;29;20094;-53
2021/10/02 04:11:52;;;;;;;36.78;16.98;;;230.50;2252.80;;;;;;4859465;29;20036;-53
2021/10/02 04:14:18;;;;;;;41.97;16.88;;;230.40;2252.80;;;;;;4859002;29;20025;-53
2021/10/02 04:16:44;;;;;;;24.15;16.40;;;230.40;2252.80;;;;;;4859175;29;20493;-53
2021/10/02 04:19:10;;;;;;;23.80;17.00;;;230.40;2252.80;;;;;;4859090;29;20025;-53
2021/10/02 04:21:35;;;;;;;25.98;16.15;;;205.70;2252.80;;;;;;4859301;29;20025;-53
2021/10/02 04:24:01;;;;;;;29.55;15.55;;;205.70;2252.80;;;;;;4859308;29;20030;-54
2021/10/02 04:26:28;;;;;;;25.25;15.82;;;230.40;2252.80;;;;;;4858951;29;20033;-53
2021/10/02 04:28:54;;;;;;;24.75;16.40;;;230.40;2252.80;;;;;;4858863;29;20049;-53
2021/10/02 04:31:19;;;;;;;26.27;18.10;;;230.40;2252.80;;;;;;4858989;29;20049;-53
2021/10/02 04:33:45;;;;;;;27.52;17.88;;;230.40;2252.80;;;;;;4859081;29;20044;-54
2021/10/02 04:36:13;;;;;;;26.73;15.73;;;230.40;2252.80;;;;;;4859111;29;20034;-53
2021/10/02 04:38:40;;;;;;;26.30;17.20;;;230.50;2252.80;;;;;;4858892;29;20116;-54
2021/10/02 04:41:06;;;;;;;31.98;18.10;;;230.50;2252.80;;;;;;4858622;29;20043;-53
2021/10/02 04:43:34;;;;;;;30.70;18.02;;;230.50;2252.80;;;;;;4858851;29;20037;-53
2021/10/02 04:46:00;;;;;;;22.08;14.43;;;230.50;2252.80;;;;;;4858713;29;20036;-53
2021/10/02 04:48:27;;;;;;;28.75;16.50;;;230.60;2252.80;;;;;;4858662;29;20045;-53
2021/10/02 04:50:53;;;;;;;24.33;15.85;;;230.60;2252.80;;;;;;4858977;29;20044;-53
2021/10/02 04:53:19;;;;;;;24.25;15.20;;;230.60;2252.80;;;;;;4858540;29;20029;-53
2021/10/02 04:55:45;;;;;;;22.48;15.55;;;230.70;2252.80;;;;;;4858658;29;20049;-52
2021/10/02 04:58:10;;;;;;;28.88;16.52;;;230.70;2252.80;;;;;;4858318;29;20029;-53
2021/10/02 05:00:36;;;;;;;32.97;16.73;;;230.80;2252.80;;;;;;4858222;29;20033;-53
2021/10/02 05:03:02;;;;;;;29.38;16.05;;;230.80;2252.80;;;;;;4858680;29;20541;-53
2021/10/02 05:05:28;;;;;;;32.25;16.23;;;230.80;2252.80;;;;;;4858376;29;20029;-53
2021/10/02 05:07:54;;;;;;;32.13;17.73;;;230.80;2252.80;;;;;;4858467;29;20392;-53
2021/10/02 05:10:19;;;;;;;28.27;17.20;;;231.20;2252.80;;;;;;4858347;29;20025;-53
2021/10/02 05:12:45;;;;;;;37.08;18.67;;;230.90;2252.80;;;;;;4858064;29;20041;-53
2021/10/02 05:15:11;;;;;;;30.30;18.00;;;231.00;2252.80;;;;;;4857978;29;20413;-54
2021/10/02 05:17:37;;;;;;;29.50;18.83;;;231.10;2252.80;;;;;;4857972;29;20497;-53
2021/10/02 05:20:04;;;;;;;30.13;17.42;;;231.10;2252.80;;;;;;4858417;29;20029;-53
2021/10/02 05:22:30;;;;;;;33.13;18.40;;;231.10;2252.80;;;;;;4858213;29;20036;-53
2021/10/02 05:24:55;;;;;;;34.78;18.02;;;231.20;2252.80;;;;;;4858179;29;20029;-53
2021/10/02 05:27:21;;;;;;;23.13;14.88;;;231.20;2252.80;;;;;;4858010;29;20038;-53
2021/10/02 05:29:48;;;;;;;39.53;23.70;;;231.30;2252.80;;;;;;4857666;29;20033;-53
2021/10/02 05:32:15;;;;;;;27.50;17.73;;;231.30;2252.80;;;;;;4858188;29;20022;-53
2021/10/02 05:34:42;;;;;;;32.97;19.60;;;256.00;2252.80;;;;;;4858144;29;20525;-54
2021/10/02 05:37:08;;;;;;;36.72;21.73;;;256.10;2252.80;;;;;;4857802;29;20036;-54
2021/10/02 05:39:34;;;;;;;42.17;31.50;;;256.10;2252.80;;;;;;4858180;29;20036;-53
2021/10/02 05:42:00;;;;;;;44.70;29.42;;;256.00;2252.80;;;;;;4857806;29;20421;-53
2021/10/02 05:44:26;;;;;;;35.42;23.20;;;256.20;2252.80;;;;;;4857880;29;20025;-54
2021/10/02 05:46:52;;;;;;;29.15;17.13;;;256.20;2252.80;;;;;;4857951;29;20077;-53
2021/10/02 05:49:17;;;;;;;26.48;19.50;;;256.20;2252.80;;;;;;4857880;29;20400;-56
2021/10/02 05:51:43;;;;;;;25.52;17.73;;;256.30;2252.80;;;;;;4858036;29;20438;-53
2021/10/02 05:54:09;;;;;;;25.38;16.63;;;256.40;2252.80;;;;;;4857752;29;20037;-53
2021/10/02 05:56:36;;;;;;;32.78;20.00;;;256.30;2252.80;;;;;;4857714;29;20036;-54
2021/10/02 05:59:03;;;;;;;25.23;16.08;;;256.50;2252.80;;;;;;4857787;29;20477;-53
2021/10/02 06:01:29;;;;;;;29.70;18.05;;;256.70;2252.80;;;;;;4857437;29;20493;-53
2021/10/02 06:03:55;;;;;;;21.83;17.42;;;282.00;2278.40;;;;;;4857872;29;20064;-53
2021/10/02 06:06:20;;;;;;;18.33;15.52;;;358.80;2329.60;;;;;;4857870;29;20103;-53
2021/10/02 06:08:47;;;;;;;21.05;16.25;;;410.10;2355.20;;;;;;4857449;29;20495;-53
2021/10/02 06:11:13;;;;;;;37.10;25.80;;;436.10;2355.20;;;;;;4857467;29;20045;-54
2021/10/02 06:13:39;;;;;;;22.70;19.30;;;486.50;2380.80;;;;;;4857350;29;20034;-53
2021/10/02 06:16:05;;;;;;;20.23;18.02;;;512.50;2380.80;;;;;;4857900;29;20377;-55
2021/10/02 06:18:31;;;;;;;23.58;19.48;;;537.80;2278.40;;;;;;4857688;29;20036;-55
2021/10/02 06:20:58;;;;;;;29.52;21.30;;;563.70;2201.60;;;;;;4857378;29;20354;-55
2021/10/02 06:23:26;;;;;;;25.90;21.65;;;588.80;1996.80;;;;;;4858125;29;20057;-54
2021/10/02 06:25:51;;;;;;;27.77;21.60;;;563.90;2048.00;;;;;;4876219;29;20037;-56
2021/10/02 06:28:17;;;;;;;26.10;22.40;;;564.10;1996.80;;;;;;4879374;29;20040;-57
2021/10/02 06:30:43;;;;;;;26.55;22.92;;;589.00;1971.20;;;;;;4879739;29;20475;-55
2021/10/02 06:33:09;;;;;;;22.15;19.75;;;589.70;1868.80;;;;;;4879468;29;20053;-58
2021/10/02 06:35:34;;;;;;;27.40;23.42;;;589.20;1868.80;;;;;;4880033;29;20380;-55
2021/10/02 06:38:00;;;;;;;28.50;24.10;;;588.80;1920.00;;;;;;4879585;29;20429;-55
2021/10/02 06:40:26;;;;;;;28.58;25.60;;;564.10;1894.40;;;;;;4879360;29;20183;-55
2021/10/02 06:42:52;;;;;;;28.90;25.98;;;563.80;1894.40;;;;;;4879610;29;20029;-55
2021/10/02 06:45:19;;;;;;;22.63;20.48;;;564.10;1868.80;;;;;;4879399;29;20029;-55
2021/10/02 06:47:44;;;;;;;24.70;22.10;;;563.70;1868.80;;;;;;4879382;29;20033;-57
2021/10/02 06:50:10;;;;;;;24.13;19.73;;;589.50;1817.60;;;;;;4879172;29;20033;-55
2021/10/02 06:52:36;;;;;;;22.70;18.40;;;614.80;1715.20;;;;;;4879310;29;20036;-56
2021/10/02 06:55:05;;;;;;;21.27;16.70;;;614.50;1740.80;;;;;;4879377;29;20511;-55
2021/10/02 06:57:30;;;;;;;20.65;18.60;;;589.70;1766.40;;;;;;4879219;29;20033;-55
2021/10/02 06:59:56;;;;;;;22.90;19.65;;;614.80;1715.20;;;;;;4878917;29;20033;-58
2021/10/02 07:02:22;;;;;;;18.83;16.83;;;640.40;1638.40;;;;;;4879163;29;20037;-57
2021/10/02 07:04:49;;;;;;;16.23;14.07;;;665.70;1638.40;;;;;;4878998;29;20593;-57
2021/10/02 07:07:16;;;;;;;18.10;15.73;;;640.60;1612.80;;;;;;4879144;29;20437;-58
2021/10/02 07:09:41;;;;;;;18.35;16.38;;;666.00;1587.20;;;;;;4878886;29;20480;-56
2021/10/02 07:12:07;;;;;;;21.70;19.30;;;717.40;1459.20;;;;;;4878886;29;20036;-56
2021/10/02 07:14:33;;;;;;;21.50;19.50;;;716.80;1459.20;;;;;;4878945;29;20511;-55
2021/10/02 07:16:59;;;;;;;21.67;19.17;;;666.30;1536.00;;;;;;4878779;29;20068;-56
2021/10/02 07:19:25;;;;;;;20.10;17.65;;;666.00;1536.00;;;;;;4878870;29;20053;-57
2021/10/02 07:21:50;;;;;;;24.17;21.42;;;666.20;1536.00;;;;;;4878902;29;20079;-57
2021/10/02 07:24:16;;;;;;;19.45;17.45;;;691.60;1484.80;;;;;;4869435;29;20093;-56
2021/10/02 07:26:43;;;;;;;25.15;18.42;;;691.40;1459.20;;;;;;4860443;29;20022;-56
2021/10/02 07:29:09;;;;;;;30.42;20.48;;;691.30;1459.20;;;;;;4859861;29;20125;-57
2021/10/02 07:31:35;;;;;;;22.88;19.77;;;666.00;1510.40;;;;;;4859991;29;20505;-59
2021/10/02 07:34:01;;;;;;;22.98;20.63;;;691.90;1459.20;;;;;;4843811;29;20046;-57
2021/10/02 07:36:28;;;;;;;22.77;20.55;;;691.80;1459.20;;;;;;4860034;29;20061;-57
2021/10/02 07:38:55;;;;;;;16.90;15.35;;;717.20;1433.60;;;;;;4859745;29;20032;-55
2021/10/02 07:41:21;;;;;;;17.55;15.85;;;717.30;1408.00;;;;;;4859988;29;20377;-56
2021/10/02 07:43:54;;;;;;;19.77;17.75;;;716.90;1433.60;;;;;;4859757;29;20033;-57
2021/10/02 07:46:21;;;;;;;19.02;17.13;;;742.70;1382.40;;;;;;4852990;29;20114;-57
2021/10/02 07:48:52;;;;;;;21.20;16.63;;;692.10;1408.00;;;;;;4859629;29;20045;-57
2021/10/02 07:51:20;;;;;;;21.23;17.90;;;742.60;1408.00;;;;;;4859659;29;20040;-57
2021/10/02 07:53:46;;;;;;;18.88;17.08;;;717.60;1356.80;;;;;;4859707;29;20025;-59
2021/10/02 07:56:12;;;;;;;16.67;14.63;;;717.70;1356.80;;;;;;4859747;29;20021;-57
2021/10/02 07:58:38;;;;;;;18.85;16.77;;;692.10;1382.40;;;;;;4859425;29;20113;-57
2021/10/02 08:01:04;;;;;;;24.85;16.42;;;716.90;1408.00;;;;;;4859534;29;20029;-57
2021/10/02 08:03:29;;;;;;;19.15;15.23;;;742.80;1382.40;;;;;;4859003;29;20040;-56
2021/10/02 08:05:55;;;;;;;19.98;15.57;;;743.10;1356.80;;;;;;4860863;29;20365;-57
2021/10/02 08:08:21;;;;;;;17.15;14.23;;;768.90;1305.60;;;;;;4877975;29;20440;-56
2021/10/02 08:10:50;;;;;;;21.98;14.48;;;768.50;1280.00;;;;;;4877696;29;20040;-56
2021/10/02 08:13:16;;;;;;;17.58;13.75;;;768.80;1305.60;;;;;;4877803;29;20040;-57
2021/10/02 08:15:44;;;;;;;14.25;12.80;;;794.00;1254.40;;;;;;4869963;29;20479;-57
2021/10/02 08:18:14;;;;;;;14.57;12.95;;;793.60;1280.00;;;;;;4866472;29;20037;-56
2021/10/02 08:20:40;;;;;;;14.38;12.85;;;768.20;1280.00;;;;;;4859040;29;20055;-55
2021/10/02 08:23:08;;;;;;;15.35;11.32;;;793.70;1254.40;;;;;;4862546;29;20082;-56
2021/10/02 08:25:36;;;;;;;12.43;9.85;;;819.90;1203.20;;;;;;4867756;29;20025;-56
2021/10/02 08:28:05;;;;;;;13.40;10.70;;;794.20;1203.20;;;;;;4872196;29;20064;-58
2021/10/02 08:30:31;;;;;;;13.15;11.68;;;794.00;1228.80;;;;;;4877318;29;20049;-57
2021/10/02 08:32:58;;;;;;;15.50;12.43;;;768.80;1228.80;;;;;;4877449;29;20041;-57
2021/10/02 08:35:24;;;;;;;17.35;14.45;;;768.70;1203.20;;;;;;4877536;29;20033;-59
2021/10/02 08:37:49;;;;;;;11.13;10.02;;;768.80;1228.80;;;;;;4877463;29;20108;-57
2021/10/02 08:40:17;;;;;;;12.73;11.48;;;793.60;1228.80;;;;;;4877338;29;20037;-59
2021/10/02 08:42:45;;;;;;;13.43;12.07;;;794.00;1228.80;;;;;;4877512;29;20025;-57
2021/10/02 08:45:13;;;;;;;12.90;10.30;;;819.80;1203.20;;;;;;4877491;29;20448;-57
2021/10/02 08:47:41;;;;;;;11.75;10.45;;;794.50;1177.60;;;;;;4877222;29;20100;-58
2021/10/02 08:50:09;;;;;;;10.93;9.93;;;819.40;1152.00;;;;;;4876548;29;20123;-58
2021/10/02 08:52:36;;;;;;;11.88;9.38;;;819.30;1152.00;;;;;;4877352;29;20464;-58
2021/10/02 08:55:03;;;;;;;13.25;11.30;;;743.10;1254.40;;;;;;4877306;29;20058;-57
2021/10/02 08:57:33;;;;;;;11.55;10.55;;;743.30;1228.80;;;;;;4876689;29;20029;-57
2021/10/02 08:59:58;;;;;;;15.65;9.88;;;742.40;1331.20;;;;;;4876936;29;20400;-59
2021/10/02 09:02:25;;;;;;;11.57;8.93;;;717.60;1280.00;;;;;;4876957;29;20033;-57
2021/10/02 09:04:52;;;;;;;14.02;10.40;;;692.10;1280.00;;;;;;4877066;29;20028;-56
2021/10/02 09:07:20;;;;;;;11.30;8.60;;;666.00;1408.00;;;;;;4876880;29;20492;-58
2021/10/02 09:09:48;;;;;;;11.55;10.15;;;665.70;1408.00;;;;;;4876765;29;20044;-57
2021/10/02 09:12:19;;;;;;;12.57;9.52;;;640.60;1408.00;;;;;;4876862;29;20033;-56
2021/10/02 09:14:46;;;;;;;14.63;9.32;;;615.00;1459.20;;;;;;4876568;29;20506;-56
2021/10/02 09:17:12;;;;;;;15.00;8.85;;;614.40;1510.40;;;;;;4877130;29;20104;-56
2021/10/02 09:19:38;;;;;;;16.40;10.45;;;589.60;1510.40;;;;;;4876636;29;20174;-56
2021/10/02 09:22:06;;;;;;;13.82;9.30;;;589.20;1510.40;;;;;;4876980;29;20548;-56
2021/10/02 09:24:36;;;;;;;10.73;8.27;;;589.30;1536.00;;;;;;4876821;29;20040;-56
2021/10/02 09:27:03;;;;;;;13.85;9.10;;;589.10;1510.40;;;;;;4876922;29;20021;-56
2021/10/02 09:29:41;;;;;;;15.65;9.55;;;564.10;1587.20;;;;;;4876279;29;20040;-56
2021/10/02 09:32:10;;;;;;;10.40;8.38;;;564.10;1587.20;;;;;;4876598;29;20084;-56
2021/10/02 09:34:51;;;;;;;12.82;8.55;;;589.20;1587.20;;;;;;4876350;29;20036;-53
2021/10/02 09:37:36;;;;;;;13.13;9.55;;;589.20;1612.80;;;;;;4876387;29;20029;-55
2021/10/02 09:40:08;;;;;;;13.55;9.18;;;564.10;1612.80;;;;;;4876561;29;20081;-56
2021/10/02 09:42:41;;;;;;;13.20;8.82;;;588.80;1587.20;;;;;;4876828;29;20021;-55
2021/10/02 09:45:16;;;;;;;14.90;8.73;;;563.90;1612.80;;;;;;4876599;29;20040;-57
2021/10/02 09:47:43;;;;;;;12.38;8.90;;;563.40;1638.40;;;;;;4876428;29;20061;-56
2021/10/02 09:50:12;;;;;;;13.00;8.18;;;563.80;1664.00;;;;;;4876162;29;20145;-56
2021/10/02 09:52:41;;;;;;;15.32;8.63;;;563.60;1638.40;;;;;;4876218;29;20037;-56
2021/10/02 09:55:32;;;;;;;21.83;8.57;;;563.30;1664.00;;;;;;4876449;29;20037;-55
2021/10/02 09:58:00;;;;;;;12.10;9.00;;;563.70;1664.00;;;;;;4818810;29;20547;-56
2021/10/02 10:00:29;;;;;;;14.27;9.90;;;563.60;1664.00;;;;;;4819637;29;20070;-56
2021/10/02 10:02:56;;;;;;;15.77;8.93;;;563.20;1664.00;;;;;;4822695;29;20042;-56
2021/10/02 10:05:32;;;;;;;13.55;9.77;;;563.40;1664.00;;;;;;4822758;29;20123;-56
2021/10/02 10:08:00;;;;;;;9.32;8.13;;;563.20;1689.60;;;;;;4822469;29;20728;-54
2021/10/02 10:10:30;;;;;;;15.80;11.98;;;538.40;1638.40;;;;;;4822507;29;20034;-56
2021/10/02 10:12:56;;;;;;;14.07;7.80;;;538.50;1664.00;;;;;;4822271;29;20057;-58
2021/10/02 10:15:54;;;;;;;15.95;9.30;;;538.50;1638.40;;;;;;4822668;29;20077;-56
2021/10/02 10:18:35;;;;;;;13.48;7.20;;;563.20;1689.60;;;;;;4779927;30;20039;-58
2021/10/02 10:21:06;;;;;;;7.93;7.13;;;563.20;1689.60;;;;;;4785886;30;20036;-55
2021/10/02 10:23:32;;;;;;;14.20;8.15;;;563.30;1689.60;;;;;;4786299;30;20092;-56
2021/10/02 10:26:01;;;;;;;12.23;8.35;;;563.20;1689.60;;;;;;4786098;30;20031;-55
2021/10/02 10:28:29;;;;;;;10.85;8.00;;;563.20;1664.00;;;;;;4785892;30;20579;-56
2021/10/02 10:31:16;;;;;;;11.25;8.35;;;563.20;1689.60;;;;;;4785759;30;20047;-56
2021/10/02 10:33:45;;;;;;;12.32;7.78;;;538.40;1664.00;;;;;;4786338;29;20487;-55
2021/10/02 10:36:12;;;;;;;15.23;8.77;;;538.40;1664.00;;;;;;4804470;29;20470;-57
2021/10/02 10:38:39;;;;;;;15.35;7.53;;;538.50;1689.60;;;;;;4803952;29;20085;-56
2021/10/02 10:41:06;;;;;;;11.82;8.45;;;538.20;1689.60;;;;;;4804117;29;20129;-56
2021/10/02 10:43:33;;;;;;;15.40;8.30;;;537.90;1715.20;;;;;;4804060;29;20482;-56
2021/10/02 10:46:07;;;;;;;10.82;8.07;;;538.00;1689.60;;;;;;4803510;29;20129;-55
2021/10/02 10:48:34;;;;;;;9.20;7.10;;;538.00;1689.60;;;;;;4804054;29;20057;-56
2021/10/02 10:51:05;;;;;;;12.88;8.48;;;538.10;1689.60;;;;;;4803796;29;20030;-56
2021/10/02 10:53:40;;;;;;;12.13;7.82;;;538.10;1689.60;;;;;;4823829;29;20116;-56
2021/10/02 10:56:08;;;;;;;8.77;6.57;;;538.20;1715.20;;;;;;4860910;29;20044;-56
2021/10/02 10:58:34;;;;;;;8.77;7.03;;;538.10;1689.60;;;;;;4861090;29;20026;-56
2021/10/02 11:01:02;;;;;;;11.25;7.20;;;538.00;1664.00;;;;;;4860199;29;20040;-55
2021/10/02 11:03:41;;;;;;;8.57;7.05;;;538.00;1664.00;;;;;;4860445;29;20086;-56
2021/10/02 11:06:17;;;;;;;10.60;8.45;;;538.00;1689.60;;;;;;4860372;29;20032;-58
2021/10/02 11:08:49;;;;;;;9.70;6.95;;;537.80;1715.20;;;;;;4860548;29;20048;-56
2021/10/02 11:11:15;;;;;;;16.35;9.35;;;538.00;1689.60;;;;;;4859969;29;20422;-57
2021/10/02 11:13:47;;;;;;;14.55;8.55;;;538.00;1689.60;;;;;;4859712;29;20438;-56
2021/10/02 11:16:35;;;;;;;10.52;8.15;;;537.90;1689.60;;;;;;4860521;29;20033;-56
2021/10/02 11:19:01;;;;;;;15.10;7.93;;;537.80;1664.00;;;;;;4860425;29;20112;-58
2021/10/02 11:21:30;;;;;;;10.27;7.35;;;538.00;1689.60;;;;;;4860284;29;20085;-56
2021/10/02 11:24:11;;;;;;;11.07;7.53;;;538.20;1689.60;;;;;;4860177;29;20025;-56
2021/10/02 11:26:44;;;;;;;13.40;8.32;;;537.90;1689.60;;;;;;4860025;29;20107;-57
2021/10/02 11:29:44;;;;;;;11.30;7.72;;;538.00;1689.60;;;;;;4859570;29;20081;-56
2021/10/02 11:32:34;;;;;;;10.75;8.18;;;538.10;1689.60;;;;;;4821192;29;20107;-55
2021/10/02 11:35:18;;;;;;;11.77;8.43;;;538.20;1689.60;;;;;;4821105;29;20038;-57
2021/10/02 11:38:02;;;;;;;10.40;7.47;;;538.30;1664.00;;;;;;4821259;29;20058;-56
2021/10/02 11:40:36;;;;;;;12.80;7.88;;;538.20;1664.00;;;;;;4821186;29;20645;-60
2021/10/02 11:43:18;;;;;;;30.80;11.50;;;538.10;1664.00;;;;;;4821095;29;20041;-55
2021/10/02 11:45:43;;;;;;;20.10;11.95;;;538.00;1689.60;;;;;;4821107;29;20042;-56
2021/10/02 11:48:17;;;;;;;14.70;9.85;;;538.00;1664.00;;;;;;4820716;29;20418;-56
2021/10/02 11:51:26;;;;;;;9.93;8.07;;;538.00;1664.00;;;;;;4821133;29;20035;-57
2021/10/02 11:53:57;;;;;;;16.55;7.88;;;538.10;1664.00;;;;;;4820923;29;20386;-55
2021/10/02 11:56:26;;;;;;;10.13;7.82;;;538.00;1638.40;;;;;;4820835;29;20033;-55
2021/10/02 11:58:55;;;;;;;11.68;7.88;;;538.00;1689.60;;;;;;4820712;29;20064;-56
2021/10/02 12:01:28;;;;;;;13.00;8.77;;;538.10;1664.00;;;;;;4820956;29;20053;-56
2021/10/02 12:04:14;;;;;;;10.15;7.68;;;538.20;1664.00;;;;;;4820948;29;20087;-56
2021/10/02 12:06:46;;;;;;;10.82;7.65;;;538.10;1664.00;;;;;;4823164;29;20517;-56
2021/10/02 12:09:17;;;;;;;19.17;7.68;;;538.20;1664.00;;;;;;4859523;29;20049;-56
2021/10/02 12:11:49;;;;;;;11.98;8.25;;;538.20;1638.40;;;;;;4859577;29;20032;-55
2021/10/02 12:14:20;;;;;;;12.48;7.55;;;538.10;1638.40;;;;;;4859482;29;20041;-56
2021/10/02 12:17:00;;;;;;;9.82;6.97;;;538.20;1664.00;;;;;;4859355;29;20030;-60
2021/10/02 12:19:27;;;;;;;11.75;7.45;;;538.20;1664.00;;;;;;4859111;29;20037;-56
2021/10/02 12:21:55;;;;;;;10.93;7.28;;;538.00;1638.40;;;;;;4859250;29;20077;-59
2021/10/02 12:24:34;;;;;;;17.10;7.53;;;538.30;1689.60;;;;;;4858279;29;20041;-55
2021/10/02 12:27:15;;;;;;;11.73;7.90;;;538.40;1664.00;;;;;;4859042;29;20033;-56
2021/10/02 12:29:45;;;;;;;12.98;7.00;;;538.20;1638.40;;;;;;4858958;29;20041;-56
2021/10/02 12:32:11;;;;;;;8.38;6.85;;;538.00;1638.40;;;;;;4859025;29;20049;-56
2021/10/02 12:34:37;;;;;;;10.00;7.45;;;538.20;1664.00;;;;;;4858709;29;20465;-55
2021/10/02 12:37:14;;;;;;;11.10;7.63;;;538.20;1638.40;;;;;;4859151;29;20040;-54
2021/10/02 12:40:02;;;;;;;12.02;7.25;;;538.40;1664.00;;;;;;4858645;29;20494;-56
2021/10/02 12:42:43;;;;;;;12.68;7.05;;;538.20;1638.40;;;;;;4858805;29;20101;-55
2021/10/02 12:45:16;;;;;;;10.55;7.20;;;538.20;1664.00;;;;;;4858726;29;20026;-56
2021/10/02 12:47:47;;;;;;;18.70;9.35;;;538.30;1664.00;;;;;;4858816;29;20025;-56
2021/10/02 12:50:16;;;;;;;14.27;7.47;;;538.40;1689.60;;;;;;4858740;29;20440;-54
2021/10/02 12:52:42;;;;;;;13.10;7.80;;;538.30;1638.40;;;;;;4858773;29;20045;-55
2021/10/02 12:55:12;;;;;;;13.68;7.53;;;538.30;1638.40;;;;;;4858499;29;20021;-57
2021/10/02 12:57:38;;;;;;;12.88;7.78;;;538.30;1638.40;;;;;;4858375;29;20113;-57
2021/10/02 13:00:07;;;;;;;9.90;7.40;;;538.20;1638.40;;;;;;4858747;29;20112;-54
2021/10/02 13:02:40;;;;;;;11.82;7.35;;;538.30;1638.40;;;;;;4858788;29;20037;-55
2021/10/02 13:05:06;;;;;;;10.65;7.40;;;538.30;1638.40;;;;;;4858746;29;20438;-55
2021/10/02 13:07:37;;;;;;;11.52;7.38;;;538.40;1638.40;;;;;;4858348;29;20093;-55